Latest Weather Observations for Falls Creek

IDV60801

Issued at 5:12 pm EST Tuesday 7 April 2020 (issued every 10 minutes, with the page automatically refreshed every 10 minutes)

About weather observations | Map of weather stations | Latest weather observations for VIC | Other Formats
Station Details ID: 083084 Name: FALLS CREEK Lat: -36.87 Lon: 147.28 Height: 1765.0 m
Data from the previous 72 hours. | See also: Recent months at Falls Creek
Date/Time
EST
Temp
°C
App
Temp
°C
Dew
Point
°C
Rel
Hum
%
Delta-T
°C
Wind Press
QNH
hPa
Press
MSL
hPa
Rain since
9am
mm
Dir  Spd
km/h
Gust
km/h
Spd
kts
Gust
kts
07/05:00pm 5.6 3.4 5.3 98 0.1 N 6 7 3 4 1021.9 1018.8 0.4
07/04:30pm 6.2 4.4 5.5 95 0.3 N 4 6 2 3 1021.9 1018.8 0.4
07/04:00pm 6.4 4.0 5.4 93 0.5 N 7 13 4 7 1022.0 1018.9 0.4
07/03:30pm 6.7 4.4 5.0 89 0.8 NW 6 11 3 6 1022.1 1019.0 0.4
07/03:00pm 6.7 3.5 5.2 90 0.7 N 11 19 6 10 1022.4 1019.3 0.4
07/02:30pm 7.3 4.5 5.0 85 1.1 NNW 9 17 5 9 1022.5 1019.4 0.4
07/02:00pm 8.4 4.8 5.2 80 1.6 NNW 13 19 7 10 1022.5 1019.4 0.4
07/01:30pm 8.0 4.9 5.5 84 1.2 NNW 11 20 6 11 1022.7 1019.6 0.4
07/01:00pm 7.7 4.1 5.0 83 1.3 N 13 19 7 10 1022.8 1019.8 0.4
07/12:30pm 8.6 5.0 5.0 78 1.8 NNW 13 17 7 9 1023.1 1020.0 0.4
07/12:00pm 8.6 4.9 4.4 75 2.1 N 13 20 7 11 1023.3 1020.2 0.4
07/11:30am 8.8 5.5 4.6 75 2.1 NNW 11 17 6 9 1023.3 1020.2 0.0
07/11:00am 7.2 2.6 3.6 78 1.7 N 17 22 9 12 1023.4 1020.4 0.0
07/10:30am 6.8 3.0 3.8 81 1.4 N 13 20 7 11 1023.6 1020.5 0.0
07/10:00am 5.6 0.9 2.9 83 1.2 N 17 24 9 13 1023.6 1020.5 0.0
07/09:30am 5.3 -0.1 2.5 82 1.3 NNW 20 28 11 15 1023.7 1020.6 0.0
07/09:00am 4.7 -0.7 2.2 84 1.1 NNW 20 28 11 15 1023.6 1020.5 0.0
07/08:30am 4.6 -0.8 2.3 85 1.0 NNW 20 28 11 15 1023.3 1020.2 0.0
07/08:00am 4.1 -1.2 2.0 86 0.9 NNW 19 28 10 15 1023.0 1019.9 0.0
07/07:30am 3.6 -1.9 1.6 87 0.9 NNW 20 28 11 15 1022.7 1019.6 0.0
07/07:00am 3.2 -2.3 1.6 89 0.7 NNW 20 26 11 14 1022.4 1019.3 0.0
07/06:30am 2.8 -2.6 1.5 91 0.6 NNW 19 22 10 12 1022.1 1019.0 0.0
07/06:00am 3.0 -2.5 1.8 92 0.5 NNW 20 26 11 14 1022.0 1018.9 0.0
07/05:30am 2.8 -2.7 2.1 95 0.3 NNW 20 26 11 14 1021.9 1018.8 0.0
07/05:00am 2.9 -2.0 2.2 95 0.3 NNW 17 22 9 12 1021.8 1018.6 0.0
07/04:30am 2.9 -2.4 1.9 93 0.4 NW 19 24 10 13 1021.8 1018.6 0.0
07/04:00am 3.0 -2.0 1.4 89 0.7 NW 17 22 9 12 1021.7 1018.5 0.0
07/03:30am 3.1 -1.2 1.0 86 0.9 NW 13 20 7 11 1021.7 1018.5 0.0
07/03:00am 2.9 -1.4 0.8 86 0.9 NW 13 17 7 9 1021.8 1018.6 0.0
07/02:30am 3.1 -0.4 1.0 86 0.9 NW 9 17 5 9 1022.0 1018.9 0.0
07/02:00am 3.2 -1.5 0.9 85 1.0 NW 15 20 8 11 1022.4 1019.3 0.0
07/01:30am 3.1 -1.7 0.3 82 1.2 NW 15 22 8 12 1022.4 1019.3 0.0
07/01:00am 3.0 -1.8 -0.1 80 1.3 NW 15 20 8 11 1022.3 1019.1 0.0
07/12:30am 2.0 -1.0 1.9 99 0.0 NW 7 9 4 5 1022.4 1019.3 0.0
07/12:00am 0.7 -2.0 0.6 99 0.0 WNW 4 6 2 3 1022.4 1019.3 0.0
 
Date/Time
EST
Temp
°C
App
Temp
°C
Dew
Point
°C
Rel
Hum
%
Delta-T
°C
Wind Press
QNH
hPa
Press
MSL
hPa
Rain since
9am
mm
Dir  Spd
km/h
Gust
km/h
Spd
kts
Gust
kts
06/11:30pm 0.8 -2.8 0.7 99 0.0 SSW 9 11 5 6 1022.5 1019.4 0.0
06/11:00pm 1.1 -3.2 1.0 99 0.0 S 13 17 7 9 1022.6 1019.5 0.0
06/10:30pm 1.2 -3.5 1.1 99 0.0 S 15 20 8 11 1022.5 1019.4 0.0
06/10:00pm 1.3 -3.0 1.2 99 0.0 SSE 13 19 7 10 1022.5 1019.4 0.0
06/09:30pm 1.7 -2.5 1.6 99 0.0 SSE 13 17 7 9 1022.3 1019.1 0.0
06/09:00pm 2.0 -1.0 1.9 99 0.0 SE 7 11 4 6 1022.5 1019.4 0.0
06/08:30pm 2.3 -0.5 2.2 99 0.0 SSE 6 9 3 5 1022.3 1019.1 0.0
06/08:00pm 2.6 -0.3 2.5 99 0.0 SE 7 9 4 5 1022.1 1019.0 0.0
06/07:30pm 2.7 0.0 2.6 99 0.0 SE 6 9 3 5 1022.0 1018.9 0.0
06/07:00pm 2.6 -0.4 2.3 98 0.1 SE 7 9 4 5 1021.8 1018.6 0.0
06/06:30pm 3.1 0.4 2.7 97 0.2 SSE 6 7 3 4 1021.4 1018.3 0.0
06/06:00pm 3.3 0.6 2.9 97 0.2 SSE 6 9 3 5 1021.2 1018.0 0.0
06/05:30pm 3.6 0.8 2.9 95 0.3 SE 7 9 4 5 1020.9 1017.8 0.0
06/05:00pm 4.4 1.6 3.2 92 0.6 SE 7 9 4 5 1020.7 1017.5 0.0
06/04:30pm 5.4 2.9 3.9 90 0.7 E 6 9 3 5 1020.6 1017.4 0.0
06/04:00pm 5.1 3.2 4.7 97 0.2 N 4 7 2 4 1020.6 1017.4 0.0
06/03:30pm 5.1 2.7 4.5 96 0.3 NNE 6 9 3 5 1020.2 1017.0 0.0
06/03:00pm 4.9 2.5 4.5 97 0.2 N 6 9 3 5 1020.1 1016.9 0.0
06/02:30pm 4.7 2.2 4.0 95 0.3 N 6 9 3 5 1020.0 1016.8 0.0
06/02:00pm 4.6 2.0 4.0 96 0.3 NNW 7 11 4 6 1019.9 1016.7 0.0
06/01:30pm 5.2 2.2 4.2 93 0.5 NW 9 15 5 8 1019.8 1016.5 0.0
06/01:00pm 5.1 2.1 4.1 93 0.5 NW 9 15 5 8 1019.6 1016.4 0.0
06/12:30pm 5.4 2.8 4.2 92 0.6 NNW 7 11 4 6 1019.8 1016.5 0.0
06/12:00pm 5.5 3.0 4.5 93 0.5 WNW 7 13 4 7 1019.8 1016.5 0.0
06/11:30am 4.7 2.2 4.0 95 0.3 NW 6 9 3 5 1019.8 1016.5 0.0
06/11:00am 4.1 2.2 2.8 91 0.6 SSW 2 7 1 4 1019.6 1016.4 0.0
06/10:30am 3.6 1.8 3.2 97 0.2 SSW 2 11 1 6 1019.5 1016.3 0.0
06/10:00am 3.1 0.5 3.0 99 0.0 ENE 6 15 3 8 1019.5 1016.3 0.0
06/09:30am 2.6 -0.3 2.5 99 0.0 S 7 15 4 8 1019.3 1016.0 0.0
06/09:00am 1.3 -2.2 1.2 99 0.0 SSW 9 13 5 7 1018.9 1015.7 46.4
06/08:30am 1.6 -1.5 1.5 99 0.0 SSW 7 13 4 7 1018.8 1015.6 46.4
06/08:00am 0.8 -1.5 0.7 99 0.0 W 2 7 1 4 1018.6 1015.3 46.4
06/07:30am 0.8 -1.8 0.7 99 0.0 W 4 6 2 3 1018.0 1014.7 46.4
06/07:00am 0.7 -2.9 0.6 99 0.0 WNW 9 17 5 9 1017.6 1014.3 46.4
06/06:30am 0.9 -3.1 0.8 99 0.0 NW 11 20 6 11 1017.3 1013.9 46.4
06/06:00am 1.2 -3.1 1.1 99 0.0 NW 13 22 7 12 1016.8 1013.5 46.4
06/05:30am 1.1 -4.0 1.0 99 0.0 NW 17 28 9 15 1016.3 1013.0 46.4
06/05:00am 1.5 -3.5 1.4 99 0.0 NW 17 26 9 14 1016.1 1012.7 46.4
06/04:30am 2.0 -2.9 1.9 99 0.0 NW 17 30 9 16 1015.7 1012.3 46.4
06/04:00am 1.9 -4.4 1.8 99 0.0 WNW 24 33 13 18 1015.5 1012.1 46.2
06/03:30am 2.4 -4.2 2.3 99 0.0 WNW 26 37 14 20 1015.1 1011.7 46.2
06/03:00am 2.8 -2.9 2.7 99 0.0 WNW 22 32 12 17 1015.0 1011.6 46.0
06/02:30am 2.9 -3.6 2.8 99 0.0 WNW 26 39 14 21 1014.9 1011.5 46.0
06/02:00am 3.1 -3.0 3.0 99 0.0 NW 24 33 13 18 1014.9 1011.5 45.8
06/01:30am 3.4 -3.0 3.3 99 0.0 NW 26 41 14 22 1014.9 1011.5 45.6
06/01:00am 3.5 -1.2 3.4 99 0.0 NW 17 28 9 15 1015.0 1011.6 45.4
06/12:30am 3.6 -2.0 3.5 99 0.0 NW 22 33 12 18 1015.0 1011.6 45.4
06/12:00am 3.6 -2.0 3.5 99 0.0 W 22 30 12 16 1015.1 1011.7 44.8
 
Date/Time
EST
Temp
°C
App
Temp
°C
Dew
Point
°C
Rel
Hum
%
Delta-T
°C
Wind Press
QNH
hPa
Press
MSL
hPa
Rain since
9am
mm
Dir  Spd
km/h
Gust
km/h
Spd
kts
Gust
kts
05/11:30pm 4.3 -0.8 4.2 99 0.0 NW 20 33 11 18 1014.9 1011.5 43.8
05/11:00pm 4.2 -1.3 4.1 99 0.0 WNW 22 44 12 24 1015.1 1011.7 43.6
05/10:47pm 4.3 -2.3 4.2 99 0.0 WNW 28 46 15 25 1015.0 1011.6 43.6
05/10:30pm 4.4 -1.8 4.3 99 0.0 WNW 26 44 14 24 1015.0 1011.6 43.2
05/10:18pm 4.4 -2.2 4.3 99 0.0 WNW 28 46 15 25 1014.9 1011.5 43.2
05/10:00pm 4.5 -0.9 4.4 99 0.0 NW 22 39 12 21 1014.5 1011.1 41.8
05/09:30pm 4.4 -2.2 4.3 99 0.0 NW 28 50 15 27 1013.8 1010.4 40.0
05/09:00pm 4.2 -3.2 4.1 99 0.0 NW 32 56 17 30 1013.3 1009.9 38.2
05/08:30pm 4.1 -5.4 4.0 99 0.0 NNW 43 76 23 41 1012.5 1009.0 36.8
05/08:00pm 4.0 -5.5 3.9 99 0.0 NW 43 70 23 38 1012.4 1008.9 35.0
05/07:30pm 3.8 -6.3 3.7 99 0.0 NNW 46 65 25 35 1012.1 1008.6 32.8
05/07:00pm 3.7 -6.1 3.6 99 0.0 NNW 44 76 24 41 1011.5 1008.0 30.8
05/06:30pm 3.5 -6.1 3.4 99 0.0 NNW 43 65 23 35 1011.2 1007.7 28.8
05/06:00pm 3.3 -5.6 3.2 99 0.0 NW 39 67 21 36 1010.6 1007.0 26.8
05/05:30pm 3.2 -7.0 3.1 99 0.0 NNW 46 69 25 37 1010.1 1006.5 24.6
05/05:00pm 2.9 -6.8 2.8 99 0.0 NNW 43 85 23 46 1009.8 1006.2 21.4
05/04:57pm 3.0 -6.7 2.9 99 0.0 NNW 43 85 23 46 1009.8 1006.2 21.2
05/04:30pm 2.7 -7.0 2.6 99 0.0 NNW 43 63 23 34 1009.8 1006.2 18.6
05/04:00pm 2.5 -7.8 2.4 99 0.0 NNW 46 69 25 37 1009.2 1005.6 16.2
05/03:30pm 2.1 -7.9 2.0 99 0.0 NNW 44 67 24 36 1009.0 1005.4 15.0
05/03:00pm 1.8 -8.7 1.7 99 0.0 NNW 46 72 25 39 1008.7 1005.1 14.6
05/02:30pm 1.2 -9.4 1.1 99 0.0 NNW 46 74 25 40 1008.6 1004.9 14.2
05/02:00pm 0.9 -9.3 0.8 99 0.0 NNW 44 70 24 38 1008.5 1004.8 0.0
05/01:30pm 0.8 -9.8 0.7 99 0.0 NNW 46 69 25 37 1008.3 1004.7 0.0
05/01:00pm 0.5 -10.9 0.4 99 0.0 NW 50 76 27 41 1008.1 1004.4 0.0
05/12:30pm 0.1 -11.8 0.0 99 0.0 NNW 52 76 28 41 1007.9 1004.2 0.0
05/12:00pm 0.1 -12.1 0.0 99 0.0 NNW 54 83 29 45 1007.7 1004.1 0.0
05/11:30am -0.2 -12.1 -0.3 99 0.0 NNW 52 76 28 41 1008.1 1004.4 0.0
05/11:00am -0.5 -13.2 -0.6 99 0.0 NNW 56 80 30 43 1007.7 1004.1 0.0
05/10:30am -0.7 -13.1 -0.8 99 0.0 NNW 54 82 29 44 1007.9 1004.2 0.0
05/10:00am -1.1 -12.4 -1.2 99 0.0 NNW 48 74 26 40 1008.5 1004.8 0.0
05/09:30am -1.5 -12.1 -1.6 99 0.0 NNW 44 72 24 39 1009.0 1005.4 0.0
05/09:00am -1.6 -12.2 -1.9 98 0.0 NNW 44 72 24 39 1008.8 1005.2 23.4
05/08:38am -1.6 -12.2 -1.7 99 0.0 NNW 44 87 24 47 1008.5 1004.8 23.4
05/08:30am -1.6 -12.2 -1.7 99 0.0 NNW 44 65 24 35 1008.5 1004.8 23.4
05/08:02am -1.7 -12.7 -1.8 99 0.0 NNW 46 65 25 35 1008.3 1004.7 23.4
05/08:00am -1.7 -12.7 -1.8 99 0.0 NNW 46 63 25 34 1008.2 1004.6 23.4
05/07:30am -2.0 -13.0 -2.1 99 -0.1 NNW 46 69 25 37 1008.1 1004.4 23.4
05/07:00am -2.3 -13.0 -2.6 98 0.0 NNW 44 70 24 38 1007.9 1004.2 23.4
05/06:30am -1.7 -12.3 -1.8 99 0.0 NNW 44 69 24 37 1007.6 1003.9 23.4
05/06:00am -1.9 -11.6 -2.0 99 -0.1 NNW 39 61 21 33 1007.4 1003.7 23.4
05/05:30am -1.9 -11.9 -2.0 99 -0.1 NNW 41 61 22 33 1007.0 1003.3 23.4
05/05:00am -1.8 -11.1 -1.9 99 -0.1 NW 37 59 20 32 1006.9 1003.2 23.4
05/04:33am -1.7 -11.3 -1.8 99 0.0 NNW 39 63 21 34 1006.7 1003.0 23.4
05/04:30am -1.7 -11.7 -1.8 99 0.0 NNW 41 56 22 30 1006.6 1002.8 23.4
05/04:00am -2.0 -10.5 -2.1 99 -0.1 NNW 33 65 18 35 1006.3 1002.6 23.4
05/03:30am -2.2 -11.9 -2.5 98 0.0 NNW 39 65 21 35 1006.2 1002.5 23.4
05/03:00am -2.1 -10.5 -2.2 99 -0.1 NNW 32 61 17 33 1006.2 1002.5 23.4
05/03:30am -2.1 -10.5 -2.2 99 -0.1 NW 32 61 17 33 1006.0 1002.2 23.4
05/03:00am -2.0 -11.7 -2.1 99 -0.1 NW 39 67 21 36 1006.1 1002.3 23.4
05/02:30am -2.2 -12.7 -2.5 98 0.0 NW 43 63 23 34 1006.1 1002.3 23.4
05/02:00am -2.1 -11.8 -2.2 99 -0.1 NW 39 63 21 34 1005.5 1001.7 23.4
05/01:30am -1.6 -10.8 -1.7 99 0.0 WNW 37 63 20 34 1005.7 1002.0 23.4
05/01:00am -2.0 -12.4 -2.1 99 -0.1 NW 43 65 23 35 1005.5 1001.7 23.4
05/12:30am -1.8 -12.4 -1.9 99 -0.1 WNW 44 65 24 35 1005.4 1001.6 23.4
05/12:00am -1.6 -12.0 -1.7 99 0.0 NW 43 65 23 35 1005.4 1001.6 23.4
 
Date/Time
EST
Temp
°C
App
Temp
°C
Dew
Point
°C
Rel
Hum
%
Delta-T
°C
Wind Press
QNH
hPa
Press
MSL
hPa
Rain since
9am
mm
Dir  Spd
km/h
Gust
km/h
Spd
kts
Gust
kts
04/11:30pm -1.3 -10.9 -1.4 99 0.0 WNW 39 61 21 33 1005.5 1001.7 23.4
04/11:00pm -0.9 -11.2 -1.0 99 0.0 NW 43 61 23 33 1005.4 1001.6 23.4
04/10:30pm -0.6 -10.1 -0.7 99 0.0 NW 39 61 21 33 1005.1 1001.4 23.4
04/10:01pm -0.5 -9.6 -0.6 99 0.0 NW 37 56 20 30 1005.1 1001.4 23.4
04/10:00pm -0.5 -10.0 -0.6 99 0.0 NW 39 56 21 30 1005.0 1001.2 23.4
04/09:30pm -0.5 -8.8 -0.6 99 0.0 WNW 33 54 18 29 1004.6 1000.9 23.4
04/09:02pm -0.6 -10.5 -0.7 99 0.0 WNW 41 59 22 32 1004.2 1000.4 23.4
04/09:00pm -0.6 -10.9 -0.7 99 0.0 WNW 43 59 23 32 1004.2 1000.4 23.4
04/08:30pm -0.5 -9.2 -0.6 99 0.0 WNW 35 57 19 31 1003.9 1000.1 23.4
04/08:00pm -0.5 -9.6 -0.6 99 0.0 NW 37 61 20 33 1003.3 999.5 23.4
04/07:32pm -0.4 -8.7 -0.5 99 0.0 NW 33 50 18 27 1002.9 999.0 23.4
04/07:30pm -0.4 -8.7 -0.5 99 0.0 NW 33 50 18 27 1002.9 999.0 23.4
04/07:27pm -0.3 -9.8 -0.4 99 0.0 WNW 39 69 21 37 1002.7 998.9 23.4
04/07:02pm -0.1 -9.1 -0.2 99 0.0 WNW 37 63 20 34 1002.4 998.5 23.4
04/07:00pm -0.2 -9.3 -0.3 99 0.0 WNW 37 54 20 29 1002.3 998.4 23.4
04/06:30pm -0.4 -10.8 -0.5 99 0.0 W 44 67 24 36 1001.9 998.0 23.4

Other formats

Comma delimited format used in spreadsheet applications
http://www.bom.gov.au/fwo/IDV60801/IDV60801.94903.axf

JavaScript Object Notation format (JSON) in row-major order
http://www.bom.gov.au/fwo/IDV60801/IDV60801.94903.json

Data quality

Most of these data are generated automatically and are frequently updated. Quality checks on data are not normally performed. It is possible for incorrect values to appear. Refer to information at About Latest Weather Observations and please check the disclaimer before using these data.